createdAt,value
2023-03-08T00:02:20.541Z,-396.00
2023-03-08T00:08:07.879Z,-396.00
2023-03-08T00:13:15.800Z,-432.00
2023-03-08T00:18:26.994Z,-432.00
2023-03-08T00:23:51.189Z,-432.00
2023-03-08T00:28:55.408Z,-432.00
2023-03-08T00:34:07.512Z,-432.00
2023-03-08T00:39:14.832Z,-432.00
2023-03-08T00:44:22.128Z,-432.00
2023-03-08T00:49:29.399Z,-432.00
2023-03-08T00:54:36.692Z,-432.00
2023-03-08T00:59:43.838Z,-432.00
2023-03-08T01:04:51.026Z,-432.00
2023-03-08T01:09:58.207Z,-432.00
2023-03-08T01:15:06.018Z,-432.00
2023-03-08T01:20:13.238Z,-432.00
2023-03-08T01:25:20.540Z,-432.00
2023-03-08T01:30:27.696Z,-432.00
2023-03-08T01:35:34.937Z,-432.00
2023-03-08T01:40:42.127Z,-432.00
2023-03-08T01:45:49.329Z,-432.00
2023-03-08T01:50:56.631Z,-432.00
2023-03-08T01:56:03.943Z,-432.00
2023-03-08T02:01:11.432Z,-432.00
2023-03-08T02:06:18.883Z,-432.00
2023-03-08T02:11:26.225Z,-432.00
2023-03-08T02:16:33.582Z,-432.00
2023-03-08T02:21:40.826Z,-432.00
2023-03-08T02:26:48.407Z,-432.00
2023-03-08T02:32:00.259Z,-432.00
2023-03-08T02:37:10.851Z,-432.00
2023-03-08T02:42:18.183Z,-432.00
2023-03-08T02:47:29.593Z,-432.00
2023-03-08T02:53:39.955Z,-432.00
2023-03-08T02:58:07.733Z,-432.00
2023-03-08T03:03:28.761Z,-432.00
2023-03-08T03:08:32.042Z,-432.00
2023-03-08T03:13:42.509Z,-432.00
2023-03-08T03:18:56.432Z,-432.00
2023-03-08T03:24:12.695Z,-432.00
2023-03-08T03:29:20.321Z,-432.00
2023-03-08T03:34:34.339Z,-432.00
2023-03-08T03:39:42.072Z,-432.00
2023-03-08T03:44:51.533Z,-432.00
2023-03-08T03:50:03.031Z,-432.00
2023-03-08T03:55:49.452Z,-396.00
2023-03-08T04:01:00.254Z,-396.00
2023-03-08T04:06:14.965Z,-432.00
2023-03-08T04:11:22.417Z,-432.00
2023-03-08T04:16:36.201Z,-396.00
2023-03-08T04:22:18.595Z,-396.00
2023-03-08T04:28:01.732Z,-396.00
2023-03-08T04:33:18.230Z,-432.00
2023-03-08T04:38:25.851Z,-432.00
2023-03-08T04:43:36.832Z,-432.00
2023-03-08T04:48:59.379Z,-432.00
2023-03-08T04:54:15.543Z,-432.00
2023-03-08T04:59:22.974Z,-432.00
2023-03-08T05:04:30.868Z,-432.00
2023-03-08T05:09:38.554Z,-432.00
2023-03-08T05:14:47.234Z,-432.00
2023-03-08T05:19:55.222Z,-432.00
2023-03-08T05:25:08.306Z,-432.00
2023-03-08T05:30:15.738Z,-432.00
2023-03-08T05:35:23.316Z,-432.00
2023-03-08T05:40:35.377Z,-468.00
2023-03-08T05:46:18.450Z,-396.00
2023-03-08T05:51:27.162Z,-432.00
2023-03-08T05:57:13.049Z,-396.00
2023-03-08T06:01:46.634Z,-432.00
2023-03-08T06:06:54.197Z,-396.00
2023-03-08T06:12:17.455Z,-396.00
2023-03-08T06:17:19.021Z,-396.00
2023-03-08T06:22:34.988Z,-432.00
2023-03-08T06:28:17.644Z,-360.00
2023-03-08T06:33:36.234Z,-432.00
2023-03-08T06:38:43.082Z,-396.00
2023-03-08T06:43:50.647Z,-396.00
2023-03-08T06:48:58.134Z,-396.00
2023-03-08T06:54:05.494Z,-396.00
2023-03-08T06:59:12.954Z,-396.00
2023-03-08T07:04:20.489Z,-396.00
2023-03-08T07:09:28.036Z,-360.00
2023-03-08T07:14:35.293Z,-360.00
2023-03-08T07:19:42.880Z,-396.00
2023-03-08T07:25:09.393Z,-360.00
2023-03-08T07:33:42.062Z,-360.00
2023-03-08T07:35:41.891Z,-360.00
2023-03-08T07:40:54.133Z,-360.00
2023-03-08T07:46:20.332Z,-360.00
2023-03-08T07:51:33.107Z,-360.00
2023-03-08T07:56:40.772Z,-324.00
2023-03-08T08:01:48.328Z,-360.00
2023-03-08T08:06:55.664Z,-360.00
2023-03-08T08:12:07.119Z,-360.00
2023-03-08T08:17:14.645Z,-360.00
2023-03-08T08:22:21.983Z,-360.00
2023-03-08T08:27:29.445Z,19332.00
2023-03-08T08:32:37.045Z,19332.00
2023-03-08T08:37:44.376Z,18504.00
2023-03-08T08:43:00.555Z,17784.00
2023-03-08T08:48:04.098Z,16272.00
2023-03-08T08:53:17.348Z,14472.00
2023-03-08T08:58:31.066Z,15480.00
2023-03-08T09:03:34.685Z,16668.00
2023-03-08T09:08:44.962Z,13608.00
2023-03-08T09:13:52.122Z,14112.00
2023-03-08T09:18:59.593Z,10800.00
2023-03-08T09:24:13.286Z,11016.00
2023-03-08T09:29:20.945Z,11160.00
2023-03-08T09:34:28.567Z,12420.00
2023-03-08T09:39:36.195Z,12708.00
2023-03-08T09:44:59.589Z,12672.00
2023-03-08T09:50:06.969Z,12024.00
2023-03-08T09:55:14.504Z,14544.00
2023-03-08T10:00:29.077Z,16452.00
2023-03-08T10:05:41.153Z,13464.00
2023-03-08T10:10:48.570Z,14580.00
2023-03-08T10:15:56.248Z,13680.00
2023-03-08T10:21:03.654Z,13140.00
2023-03-08T10:26:13.742Z,14544.00
2023-03-08T10:31:21.330Z,14076.00
2023-03-08T10:36:28.566Z,14328.00
2023-03-08T10:41:37.899Z,16200.00
2023-03-08T10:46:45.507Z,13248.00
2023-03-08T10:51:52.845Z,13392.00
2023-03-08T10:57:00.999Z,12204.00
2023-03-08T11:02:08.321Z,11880.00
2023-03-08T11:07:15.637Z,14184.00
2023-03-08T11:12:23.097Z,13464.00
2023-03-08T11:17:30.578Z,15048.00
2023-03-08T11:22:38.098Z,14364.00
2023-03-08T11:27:45.430Z,14040.00
2023-03-08T11:32:53.286Z,16452.00
2023-03-08T11:38:00.333Z,13716.00
2023-03-08T11:43:10.826Z,12636.00
2023-03-08T11:48:18.220Z,13464.00
2023-03-08T11:53:25.616Z,12780.00
2023-03-08T11:58:32.888Z,12924.00
2023-03-08T12:03:40.660Z,13644.00
2023-03-08T12:08:47.883Z,11520.00
2023-03-08T12:13:55.142Z,11448.00
2023-03-08T12:19:02.785Z,13464.00
2023-03-08T12:24:10.233Z,13824.00
2023-03-08T12:29:23.601Z,15444.00
2023-03-08T12:34:30.319Z,18216.00
2023-03-08T12:39:37.885Z,15516.00
2023-03-08T12:44:45.191Z,15228.00
2023-03-08T12:49:52.763Z,14328.00
2023-03-08T12:54:59.881Z,13428.00
2023-03-08T13:00:11.008Z,15048.00
2023-03-08T13:05:21.906Z,14760.00
2023-03-08T13:10:29.281Z,16236.00
2023-03-08T13:15:36.679Z,18180.00
2023-03-08T13:20:44.012Z,17028.00
2023-03-08T13:25:51.804Z,19764.00
2023-03-08T13:30:58.987Z,22176.00
2023-03-08T13:36:06.422Z,22752.00
2023-03-08T13:41:13.632Z,22392.00
2023-03-08T13:46:21.110Z,22248.00
2023-03-08T13:51:28.480Z,21996.00
2023-03-08T13:56:36.032Z,21636.00
2023-03-08T14:01:43.325Z,21600.00
2023-03-08T14:06:50.705Z,21924.00
2023-03-08T14:11:57.954Z,21384.00
2023-03-08T14:17:05.296Z,21348.00
2023-03-08T14:22:12.784Z,20628.00
2023-03-08T14:27:19.946Z,19116.00
2023-03-08T14:32:27.259Z,19944.00
2023-03-08T14:37:37.727Z,18324.00
2023-03-08T14:42:45.567Z,18936.00
2023-03-08T14:47:52.823Z,19260.00
2023-03-08T14:53:00.297Z,18504.00
2023-03-08T14:58:07.840Z,17352.00
2023-03-08T15:03:30.214Z,16488.00
2023-03-08T15:08:37.569Z,16668.00
2023-03-08T15:13:45.427Z,18468.00
2023-03-08T15:18:56.386Z,17712.00
2023-03-08T15:24:03.887Z,17100.00
2023-03-08T15:29:11.117Z,17064.00
2023-03-08T15:34:18.486Z,15264.00
2023-03-08T15:39:25.889Z,14256.00
2023-03-08T15:44:33.292Z,14220.00
2023-03-08T15:49:40.743Z,9144.00
2023-03-08T15:54:48.360Z,8676.00
2023-03-08T15:59:55.590Z,7992.00
2023-03-08T16:05:02.944Z,8928.00
2023-03-08T16:10:11.068Z,7740.00
2023-03-08T16:15:18.044Z,4788.00
2023-03-08T16:20:25.463Z,4320.00
2023-03-08T16:25:32.763Z,2808.00
2023-03-08T16:30:40.201Z,2736.00
2023-03-08T16:35:47.623Z,2700.00
2023-03-08T16:41:06.211Z,2448.00
2023-03-08T16:46:02.515Z,1476.00
2023-03-08T16:51:09.922Z,1008.00
2023-03-08T16:56:17.372Z,756.00
2023-03-08T17:01:24.782Z,468.00
2023-03-08T17:06:32.319Z,72.00
2023-03-08T17:11:39.676Z,-180.00
2023-03-08T17:16:46.969Z,1116.00
2023-03-08T17:21:54.270Z,0.00
2023-03-08T17:27:01.456Z,-36.00
2023-03-08T17:32:08.693Z,-36.00
2023-03-08T17:37:15.900Z,-72.00
2023-03-08T17:42:23.358Z,-36.00
2023-03-08T17:47:30.950Z,-36.00
2023-03-08T17:52:38.257Z,-360.00
2023-03-08T17:57:45.486Z,-396.00
2023-03-08T18:02:53.035Z,-396.00
2023-03-08T18:08:00.393Z,-396.00
2023-03-08T18:13:07.646Z,-360.00
2023-03-08T18:18:15.532Z,11016.00
2023-03-08T18:23:22.706Z,11016.00
2023-03-08T18:28:30.094Z,10980.00
2023-03-08T18:33:37.647Z,11016.00
2023-03-08T18:38:45.241Z,11052.00
2023-03-08T18:43:52.779Z,10944.00
2023-03-08T18:49:00.166Z,10620.00
2023-03-08T18:54:07.395Z,10692.00
2023-03-08T18:59:14.910Z,10692.00
2023-03-08T19:04:22.619Z,10692.00
2023-03-08T19:09:30.203Z,10656.00
2023-03-08T19:14:37.664Z,10692.00
2023-03-08T19:19:45.024Z,10764.00
2023-03-08T19:24:52.746Z,10656.00
2023-03-08T19:30:00.299Z,10332.00
2023-03-08T19:35:07.865Z,10476.00
2023-03-08T19:40:15.607Z,10476.00
2023-03-08T19:45:23.239Z,10548.00
2023-03-08T19:50:30.822Z,10548.00
2023-03-08T19:55:38.541Z,10620.00
2023-03-08T20:00:46.012Z,10656.00
2023-03-08T20:05:53.615Z,10656.00
2023-03-08T20:11:01.407Z,10656.00
2023-03-08T20:16:09.330Z,10656.00
2023-03-08T20:21:17.159Z,10692.00
2023-03-08T20:26:24.942Z,10656.00
2023-03-08T20:31:32.832Z,10764.00
2023-03-08T20:36:40.488Z,10764.00
2023-03-08T20:41:47.987Z,10584.00
2023-03-08T20:46:55.534Z,10800.00
2023-03-08T20:52:03.731Z,10836.00
2023-03-08T20:57:11.138Z,10800.00
2023-03-08T21:02:18.528Z,10764.00
2023-03-08T21:07:25.758Z,10800.00
2023-03-08T21:12:33.173Z,10800.00
2023-03-08T21:17:40.537Z,10800.00
2023-03-08T21:22:47.769Z,10764.00
2023-03-08T21:27:55.386Z,10296.00
2023-03-08T21:33:02.906Z,10260.00
2023-03-08T21:38:10.312Z,10296.00
2023-03-08T21:43:18.022Z,10296.00
2023-03-08T21:48:25.314Z,10080.00
2023-03-08T21:53:32.542Z,10116.00
2023-03-08T21:58:39.765Z,10044.00
2023-03-08T22:03:46.996Z,10116.00
2023-03-08T22:08:54.242Z,10152.00
2023-03-08T22:14:01.442Z,10188.00
2023-03-08T22:19:08.637Z,10080.00
2023-03-08T22:24:15.807Z,9972.00
2023-03-08T22:29:22.999Z,10044.00
2023-03-08T22:34:30.272Z,10080.00
2023-03-08T22:39:37.350Z,10152.00
2023-03-08T22:44:44.578Z,9936.00
2023-03-08T22:49:51.759Z,9936.00
2023-03-08T22:54:58.905Z,5472.00
2023-03-08T23:00:10.778Z,-360.00
2023-03-08T23:05:15.745Z,-360.00
2023-03-08T23:10:23.188Z,-360.00
2023-03-08T23:15:31.456Z,-324.00
2023-03-08T23:20:39.071Z,-360.00
2023-03-08T23:25:49.694Z,-324.00
2023-03-08T23:30:56.581Z,-324.00
2023-03-08T23:36:04.671Z,-360.00
2023-03-08T23:41:11.962Z,-360.00
2023-03-08T23:46:19.414Z,-360.00
2023-03-08T23:51:26.772Z,-324.00
2023-03-08T23:56:34.209Z,-360.00
